SBOSBO PEG / LIRZ
Speedbird OnlineSpeedbird Online PEG / LIRZ

Perugia San Francesco d'Assisi – Umbria International Airport
09:22 14.1°C

Location Perugia, Italy
Latitude: 43.095901
Longitude: 12.5132
Web Airport Website | Wikipedia
Altitude 212 Meter / 697 Feet
Distance 1,318 KM / 819 Miles
from London.
Time Zone UTC +2 hours (Europe/Rome)
Codes IATA: PEG
ICAO: LIRZ
Currency £1 equals EUR 1.15
Runways
RunwayLength (m)Surface
012199Asphalt
192199Asphalt
Radio
TypeDescriptionFrequency
AFISINFO118.1
TWRTWR118.1
Live ATC
METAR LIRZ 060650Z AUTO 01004KT 9999 NCD 13/13 Q1028
TAF TAF LIRZ 060500Z 0606/0706 02006KT 9999 FEW030
Weather As Of 06 Oct 2022 09:22
Description Overcast clouds
Wind 7 km/h from North (10°)
Cloud Cover 100%
Precipitation Rain: none, Snow: none
Sunrise 07:12
Sunset 18:43
Rotations During the last 90 days there were
62 flights from LHR
60 flights to LHR


© 2017-2022 Speedbird Online